^^
Station Historical Data
 
Daily Summary for February 17, 2018 Units:  English    Metric   Both
« Previous Day
Next Day »
Daily Weekly Monthly Yearly Custom
  Current: High: Low: Average:
Temperature: -4.0 °F TemperatureC °F -10.1 °F -6 °F
Dew Point: -5.3 °F DewpointC °F -13.8 °F -10 °F
Humidity: 91% Humidity% 61% 73%
Wind Speed: 9.3mph WindSpeedKMHmph 3.7mph 11.9mph
Wind Gust: 9.3mph WindSpeedGustKMHmph - -
WindWSW - - South
Pressure: 1014.1 in PressurehPa in 1013.4 in -
Precipitation: 0.0 in      
Historical Graphs
 
 
Tabular Data for February 17, 2018
Time Temperature Dew Point Pressure Wind Wind Speed Wind Gust Humidity Rainfall Rate (Hourly) solar Conditions
TemperatureC °F DewpointC °F PressurehPa in Calm     Humidity% HourlyPrecipMM in SoftwareType W/m2 Conditions
00:04 -10.1 °F -13.8 °F 1022.2 in East 5.6 mph 5.6 mph 74% 0.0 in WeatherDisplay:10.37 W/m2 CLR
00:09 -9.9 °F -13.7 °F 1022.2 in East 5.6 mph 5.6 mph 74% 0.0 in WeatherDisplay:10.37 W/m2 CLR
00:14 -9.9 °F -13.7 °F 1021.9 in East 7.9 mph 7.9 mph 74% 0.0 in WeatherDisplay:10.37 W/m2 CLR
00:19 -9.7 °F -13.6 °F 1021.6 in East 5.6 mph 5.6 mph 73% 0.0 in WeatherDisplay:10.37 W/m2 CLR
00:24 -9.9 °F -13.8 °F 1021.6 in East 4.7 mph 4.7 mph 73% 0.0 in WeatherDisplay:10.37 W/m2 CLR
00:29 -9.8 °F -13.7 °F 1021.6 in East 3.7 mph 3.7 mph 73% 0.0 in WeatherDisplay:10.37 W/m2 CLR
00:34 -10.1 °F -13.7 °F 1021.6 in East 5.6 mph 5.6 mph 75% 0.0 in WeatherDisplay:10.37 W/m2 CLR
00:39 -9.9 °F -13.5 °F 1021.6 in East 5.6 mph 5.6 mph 75% 0.0 in WeatherDisplay:10.37 W/m2 CLR
00:44 -9.9 °F -13.5 °F 1021.2 in East 5.6 mph 5.6 mph 75% 0.0 in WeatherDisplay:10.37 W/m2 CLR
00:49 -9.9 °F -13.5 °F 1021.2 in East 6.4 mph 6.4 mph 75% 0.0 in WeatherDisplay:10.37 W/m2 CLR
00:54 -9.9 °F -13.5 °F 1021.6 in East 4.7 mph 4.7 mph 75% 0.0 in WeatherDisplay:10.37 W/m2 CLR
00:59 -9.8 °F -13.4 °F 1021.6 in East 5.6 mph 5.6 mph 75% 0.0 in WeatherDisplay:10.37 W/m2 CLR
01:04 -9.6 °F -13.2 °F 1021.6 in East 5.6 mph 5.6 mph 75% 0.0 in WeatherDisplay:10.37 W/m2 CLR
01:09 -9.5 °F -13.4 °F 1021.6 in East 9.7 mph 9.7 mph 73% 0.0 in WeatherDisplay:10.37 W/m2 CLR
01:14 -9.5 °F -13.4 °F 1021.6 in East 5.6 mph 5.6 mph 73% 0.0 in WeatherDisplay:10.37 W/m2 CLR
01:19 -9.4 °F -13.3 °F 1021.6 in East 9.3 mph 9.3 mph 73% 0.0 in WeatherDisplay:10.37 W/m2 CLR
01:29 -9.3 °F -13.6 °F 1021.6 in East 9.3 mph 9.3 mph 71% 0.0 in WeatherDisplay:10.37 W/m2 CLR
01:34 -9.3 °F -13.6 °F 1021.6 in East 11.1 mph 11.1 mph 71% 0.0 in WeatherDisplay:10.37 W/m2 CLR
01:39 -9.3 °F -13.6 °F 1021.6 in East 9.7 mph 9.7 mph 71% 0.0 in WeatherDisplay:10.37 W/m2 CLR
01:44 -9.1 °F -13.6 °F 1021.6 in ESE 13.0 mph 13.0 mph 70% 0.0 in WeatherDisplay:10.37 W/m2 CLR
01:49 -9.0 °F -13.5 °F 1021.6 in ESE 11.1 mph 11.1 mph 70% 0.0 in WeatherDisplay:10.37 W/m2 CLR
01:54 -9.0 °F -13.5 °F 1021.6 in ESE 5.6 mph 5.8 mph 70% 0.0 in WeatherDisplay:10.37 W/m2 CLR
01:59 -9.1 °F -13.6 °F 1021.6 in ESE 5.6 mph 5.6 mph 70% 0.0 in WeatherDisplay:10.37 W/m2 CLR
02:04 -9.1 °F -13.6 °F 1021.6 in ESE 9.3 mph 9.3 mph 70% 0.0 in WeatherDisplay:10.37 W/m2 CLR
02:09 -9.1 °F -13.6 °F 1021.6 in ESE 7.4 mph 7.4 mph 70% 0.0 in WeatherDisplay:10.37 W/m2 CLR
02:14 -9.1 °F -13.4 °F 1021.6 in ESE 7.4 mph 7.4 mph 71% 0.0 in WeatherDisplay:10.37 W/m2 CLR
02:19 -9.1 °F -13.4 °F 1021.6 in ESE 7.9 mph 7.9 mph 71% 0.0 in WeatherDisplay:10.37 W/m2 CLR
02:24 -9.1 °F -13.4 °F 1021.2 in ESE 7.4 mph 7.4 mph 71% 0.0 in WeatherDisplay:10.37 W/m2 CLR
02:29 -9.0 °F -13.3 °F 1021.2 in ESE 9.3 mph 9.3 mph 71% 0.0 in WeatherDisplay:10.37 W/m2 CLR
02:34 -9.0 °F -13.3 °F 1021.2 in ESE 6.4 mph 6.4 mph 71% 0.0 in WeatherDisplay:10.37 W/m2 CLR
02:39 -9.0 °F -12.9 °F 1020.5 in ESE 6.4 mph 6.4 mph 73% 0.0 in WeatherDisplay:10.37 W/m2 CLR
02:44 -8.9 °F -13.2 °F 1021.2 in ESE 7.4 mph 7.4 mph 71% 0.0 in WeatherDisplay:10.37 W/m2 CLR
02:49 -8.8 °F -13.1 °F 1021.2 in ESE 9.7 mph 9.7 mph 71% 0.0 in WeatherDisplay:10.37 W/m2 CLR
02:54 -8.8 °F -13.1 °F 1020.5 in ESE 7.9 mph 7.9 mph 71% 0.0 in WeatherDisplay:10.37 W/m2 CLR
02:59 -8.8 °F -13.1 °F 1020.5 in ESE 5.6 mph 5.6 mph 71% 0.0 in WeatherDisplay:10.37 W/m2 CLR
03:04 -8.8 °F -13.1 °F 1020.5 in ESE 7.4 mph 7.4 mph 71% 0.0 in WeatherDisplay:10.37 W/m2 CLR
03:09 -8.8 °F -13.1 °F 1020.5 in ESE 9.7 mph 9.7 mph 71% 0.0 in WeatherDisplay:10.37 W/m2 CLR
03:14 -8.8 °F -13.1 °F 1020.2 in ESE 7.4 mph 7.4 mph 71% 0.0 in WeatherDisplay:10.37 W/m2 CLR
03:19 -8.8 °F -13.3 °F 1020.5 in ESE 9.3 mph 9.3 mph 70% 0.0 in WeatherDisplay:10.37 W/m2 CLR
03:24 -8.8 °F -13.3 °F 1020.2 in ESE 9.7 mph 9.7 mph 70% 0.0 in WeatherDisplay:10.37 W/m2 CLR
03:29 -8.8 °F -13.3 °F 1020.2 in ESE 9.7 mph 9.7 mph 70% 0.0 in WeatherDisplay:10.37 W/m2 CLR
03:34 -8.9 °F -13.4 °F 1020.2 in ESE 11.1 mph 11.1 mph 70% 0.0 in WeatherDisplay:10.37 W/m2 CLR
03:39 -8.8 °F -13.3 °F 1020.2 in ESE 5.6 mph 6.4 mph 70% 0.0 in WeatherDisplay:10.37 W/m2 CLR
03:44 -8.8 °F -13.3 °F 1019.5 in ESE 12.9 mph 12.9 mph 70% 0.0 in WeatherDisplay:10.37 W/m2 CLR
03:49 -8.8 °F -13.3 °F 1019.5 in ESE 6.4 mph 7.6 mph 70% 0.0 in WeatherDisplay:10.37 W/m2 CLR
03:54 -8.8 °F -13.3 °F 1019.5 in SE 7.4 mph 7.6 mph 70% 0.0 in WeatherDisplay:10.37 W/m2 CLR
03:59 -8.8 °F -13.3 °F 1019.5 in SSE 5.6 mph 5.6 mph 70% 0.0 in WeatherDisplay:10.37 W/m2 CLR
04:04 -8.8 °F -13.3 °F 1019.5 in ESE 9.3 mph 9.3 mph 70% 0.0 in WeatherDisplay:10.37 W/m2 CLR
04:09 -8.8 °F -13.3 °F 1019.5 in ESE 13.0 mph 13.0 mph 70% 0.0 in WeatherDisplay:10.37 W/m2 CLR
04:14 -8.8 °F -13.3 °F 1018.8 in South 13.0 mph 13.0 mph 70% 0.0 in WeatherDisplay:10.37 W/m2 CLR
04:19 -8.8 °F -13.3 °F 1019.5 in SSE 7.9 mph 7.9 mph 70% 0.0 in WeatherDisplay:10.37 W/m2 CLR
04:24 -8.8 °F -13.3 °F 1018.5 in SSE 9.3 mph 9.3 mph 70% 0.0 in WeatherDisplay:10.37 W/m2 CLR
04:29 -8.8 °F -13.3 °F 1018.5 in ESE 6.4 mph 6.4 mph 70% 0.0 in WeatherDisplay:10.37 W/m2 CLR
04:34 -8.8 °F -13.3 °F 1018.5 in ESE 6.4 mph 6.4 mph 70% 0.0 in WeatherDisplay:10.37 W/m2 CLR
04:39 -8.7 °F -13.2 °F 1018.5 in ESE 11.1 mph 11.1 mph 70% 0.0 in WeatherDisplay:10.37 W/m2 CLR
04:44 -8.7 °F -13.2 °F 1018.5 in SSW 9.3 mph 9.3 mph 70% 0.0 in WeatherDisplay:10.37 W/m2 CLR
04:49 -8.5 °F -13.0 °F 1018.5 in South 9.7 mph 9.7 mph 70% 0.0 in WeatherDisplay:10.37 W/m2 CLR
04:54 -8.5 °F -13.0 °F 1018.5 in SSE 5.6 mph 6.1 mph 70% 0.0 in WeatherDisplay:10.37 W/m2 CLR
04:59 -8.5 °F -13.0 °F 1017.8 in SSW 11.1 mph 11.1 mph 70% 0.0 in WeatherDisplay:10.37 W/m2 CLR
05:04 -8.5 °F -13.0 °F 1018.5 in SSW 7.4 mph 7.4 mph 70% 0.0 in WeatherDisplay:10.37 W/m2 CLR
05:09 -8.4 °F -12.9 °F 1018.5 in SSE 9.3 mph 9.3 mph 70% 0.0 in WeatherDisplay:10.37 W/m2 CLR
05:14 -8.3 °F -12.8 °F 1018.5 in South 13.0 mph 13.0 mph 70% 0.0 in WeatherDisplay:10.37 W/m2 CLR
05:19 -8.3 °F -12.6 °F 1018.5 in South 7.4 mph 9.3 mph 71% 0.0 in WeatherDisplay:10.37 W/m2 CLR
05:24 -8.3 °F -12.6 °F 1018.2 in SSW 9.3 mph 9.3 mph 71% 0.0 in WeatherDisplay:10.37 W/m2 CLR
05:29 -8.3 °F -12.6 °F 1018.5 in ESE 16.7 mph 16.7 mph 71% 0.0 in WeatherDisplay:10.37 W/m2 CLR
05:34 -8.2 °F -12.6 °F 1018.2 in South 12.9 mph 12.9 mph 71% 0.0 in WeatherDisplay:10.37 W/m2 CLR
05:39 -8.1 °F -12.4 °F 1018.2 in ESE 9.3 mph 9.3 mph 71% 0.0 in WeatherDisplay:10.37 W/m2 CLR
05:44 -8.1 °F -12.4 °F 1018.2 in ESE 11.1 mph 11.1 mph 71% 0.0 in WeatherDisplay:10.37 W/m2 CLR
05:49 -8.1 °F -12.6 °F 1018.2 in SE 13.0 mph 13.0 mph 70% 0.0 in WeatherDisplay:10.37 W/m2 CLR
05:54 -8.1 °F -12.6 °F 1018.2 in ESE 16.7 mph 16.7 mph 70% 0.0 in WeatherDisplay:10.37 W/m2 CLR
05:59 -7.8 °F -12.5 °F 1018.2 in SSW 18.5 mph 18.5 mph 69% 0.0 in WeatherDisplay:10.37 W/m2 CLR
06:04 -7.7 °F -12.6 °F 1018.5 in South 22.2 mph 22.2 mph 68% 0.0 in WeatherDisplay:10.37 W/m2 CLR
06:09 -7.7 °F -12.6 °F 1018.2 in South 16.7 mph 16.7 mph 68% 0.0 in WeatherDisplay:10.37 W/m2 CLR
06:14 -7.5 °F -12.4 °F 1018.2 in ESE 9.3 mph 9.3 mph 68% 0.0 in WeatherDisplay:10.37 W/m2 CLR
06:19 -7.5 °F -12.2 °F 1018.2 in SE 11.1 mph 11.1 mph 69% 0.0 in WeatherDisplay:10.37 W/m2 CLR
06:24 -7.4 °F -12.1 °F 1017.8 in SSW 13.0 mph 13.0 mph 69% 0.0 in WeatherDisplay:10.37 W/m2 CLR
06:29 -7.4 °F -12.1 °F 1018.2 in South 13.0 mph 13.0 mph 69% 0.0 in WeatherDisplay:10.37 W/m2 CLR
06:34 -7.4 °F -11.9 °F 1017.8 in SSE 16.7 mph 16.7 mph 70% 0.0 in WeatherDisplay:10.37 W/m2 CLR
06:39 -7.4 °F -11.9 °F 1017.2 in SSW 13.0 mph 13.0 mph 70% 0.0 in WeatherDisplay:10.37 W/m2 CLR
06:44 -7.4 °F -11.9 °F 1017.8 in SSW 11.1 mph 11.1 mph 70% 0.0 in WeatherDisplay:10.37 W/m2 CLR
06:49 -7.4 °F -11.9 °F 1017.8 in ESE 7.4 mph 7.6 mph 70% 0.0 in WeatherDisplay:10.37 W/m2 CLR
06:54 -7.3 °F -11.8 °F 1018.2 in SSW 13.0 mph 13.0 mph 70% 0.0 in WeatherDisplay:10.37 W/m2 CLR
06:59 -7.2 °F -11.9 °F 1017.8 in South 13.0 mph 13.0 mph 69% 0.0 in WeatherDisplay:10.37 W/m2 CLR
07:04 -7.1 °F -11.8 °F 1017.8 in SSW 13.0 mph 13.0 mph 69% 0.0 in WeatherDisplay:10.37 W/m2 CLR
07:09 -7.1 °F -12.0 °F 1017.8 in South 13.0 mph 13.0 mph 68% 0.0 in WeatherDisplay:10.37 W/m2 CLR
07:14 -7.1 °F -12.0 °F 1017.8 in SW 11.1 mph 11.1 mph 68% 0.0 in WeatherDisplay:10.37 W/m2 CLR
07:19 -6.9 °F -11.8 °F 1017.8 in WSW 16.7 mph 16.7 mph 68% 0.0 in WeatherDisplay:10.37 W/m2 CLR
07:24 -6.8 °F -12.1 °F 1017.8 in SW 14.3 mph 14.3 mph 66% 0.0 in WeatherDisplay:10.37 W/m2 CLR
07:29 -6.8 °F -12.1 °F 1017.8 in SE 11.1 mph 11.1 mph 66% 0.0 in WeatherDisplay:10.37 W/m2 CLR
07:34 -6.8 °F -12.1 °F 1017.8 in SSW 16.7 mph 16.7 mph 66% 0.0 in WeatherDisplay:10.37 W/m2 CLR
07:39 -6.8 °F -12.1 °F 1017.2 in South 14.8 mph 14.8 mph 66% 0.0 in WeatherDisplay:10.37 W/m2 CLR
07:44 -6.8 °F -12.1 °F 1017.8 in ESE 11.1 mph 11.1 mph 66% 0.0 in WeatherDisplay:10.37 W/m2 CLR
07:49 -6.7 °F -12.0 °F 1017.2 in South 13.0 mph 13.0 mph 66% 0.0 in WeatherDisplay:10.37 W/m2 CLR
07:54 -6.6 °F -11.9 °F 1017.8 in ESE 16.7 mph 16.7 mph 66% 0.0 in WeatherDisplay:10.37 W/m2 CLR
07:59 -6.6 °F -12.1 °F 1017.2 in SSW 20.4 mph 20.4 mph 65% 0.0 in WeatherDisplay:10.37 W/m2 CLR
08:04 -6.4 °F -11.9 °F 1017.2 in SW 13.0 mph 13.0 mph 65% 0.0 in WeatherDisplay:10.37 W/m2 FEW
08:09 -6.3 °F -11.8 °F 1017.2 in SSW 20.4 mph 20.4 mph 65% 0.0 in WeatherDisplay:10.37 W/m2 FEW
08:14 -6.3 °F -12.2 °F 1016.8 in SSW 18.5 mph 18.5 mph 63% 0.0 in WeatherDisplay:10.37 W/m2 FEW
08:19 -6.2 °F -12.1 °F 1017.2 in SSW 17.5 mph 17.5 mph 63% 0.0 in WeatherDisplay:10.37 W/m2 FEW
08:24 -5.9 °F -11.8 °F 1016.8 in SSW 13.0 mph 13.0 mph 63% 0.0 in WeatherDisplay:10.37 W/m2 FEW
08:29 -5.8 °F -11.7 °F 1016.8 in SSW 16.7 mph 16.7 mph 63% 0.0 in WeatherDisplay:10.37 W/m2 FEW
08:34 -5.6 °F -11.6 °F 1016.1 in SW 11.1 mph 11.1 mph 63% 0.0 in WeatherDisplay:10.37 W/m2 FEW
08:39 -5.6 °F -11.6 °F 1016.8 in South 17.5 mph 17.5 mph 63% 0.0 in WeatherDisplay:10.37 W/m2 FEW
08:44 -5.6 °F -11.9 °F 1016.8 in South 16.3 mph 16.3 mph 61% 0.0 in WeatherDisplay:10.37 W/m2 FEW
08:49 -5.6 °F -11.6 °F 1016.8 in SSE 19.5 mph 19.5 mph 63% 0.0 in WeatherDisplay:10.37 W/m2 FEW
08:54 -5.5 °F -11.4 °F 1016.8 in ESE 14.8 mph 14.8 mph 63% 0.0 in WeatherDisplay:10.37 W/m2 FEW
08:59 -5.4 °F -11.3 °F 1016.8 in SSW 16.7 mph 16.7 mph 63% 0.0 in WeatherDisplay:10.37 W/m2 FEW
09:04 -5.3 °F -11.2 °F 1016.8 in SSW 18.5 mph 18.5 mph 63% 0.0 in WeatherDisplay:10.37 W/m2 CLR
09:14 -5.2 °F -11.2 °F 1016.8 in South 11.1 mph 11.9 mph 63% 0.0 in WeatherDisplay:10.37 W/m2 CLR
09:19 -5.1 °F -11.4 °F 1016.8 in South 13.0 mph 13.0 mph 61% 0.0 in WeatherDisplay:10.37 W/m2 CLR
09:24 -4.9 °F -11.3 °F 1016.1 in SSW 13.0 mph 13.0 mph 61% 0.0 in WeatherDisplay:10.37 W/m2 CLR
09:29 -4.9 °F -11.3 °F 1016.1 in SW 22.2 mph 22.2 mph 61% 0.0 in WeatherDisplay:10.37 W/m2 CLR
09:34 -4.8 °F -11.2 °F 1016.1 in SW 13.0 mph 16.9 mph 61% 0.0 in WeatherDisplay:10.37 W/m2 CLR
09:39 -4.6 °F -11.0 °F 1016.8 in South 19.5 mph 19.5 mph 61% 0.0 in WeatherDisplay:10.37 W/m2 CLR
09:44 -4.6 °F -11.0 °F 1016.8 in SSW 20.4 mph 20.4 mph 61% 0.0 in WeatherDisplay:10.37 W/m2 CLR
09:49 -4.6 °F -11.0 °F 1016.8 in SSW 27.4 mph 27.4 mph 61% 0.0 in WeatherDisplay:10.37 W/m2 CLR
09:54 -4.6 °F -11.0 °F 1016.8 in SSW 24.1 mph 24.1 mph 61% 0.0 in WeatherDisplay:10.37 W/m2 CLR
09:59 -4.6 °F -11.0 °F 1016.1 in SW 18.5 mph 18.5 mph 61% 0.0 in WeatherDisplay:10.37 W/m2 CLR
10:04 -4.6 °F -11.0 °F 1016.8 in South 19.5 mph 19.5 mph 61% 0.0 in WeatherDisplay:10.37 W/m2 OVC
10:09 -4.4 °F -10.8 °F 1016.1 in SW 11.1 mph 12.6 mph 61% 0.0 in WeatherDisplay:10.37 W/m2 OVC
10:14 -4.4 °F -10.8 °F 1016.1 in West 16.7 mph 16.7 mph 61% 0.0 in WeatherDisplay:10.37 W/m2 OVC
10:19 -4.4 °F -10.8 °F 1016.1 in SW 22.2 mph 22.2 mph 61% 0.0 in WeatherDisplay:10.37 W/m2 OVC
10:24 -4.4 °F -10.4 °F 1016.1 in SW 13.0 mph 13.0 mph 63% 0.0 in WeatherDisplay:10.37 W/m2 OVC
10:29 -4.4 °F -10.4 °F 1016.1 in South 18.5 mph 18.5 mph 63% 0.0 in WeatherDisplay:10.37 W/m2 OVC
10:34 -4.6 °F -10.6 °F 1015.8 in South 31.5 mph 31.5 mph 63% 0.0 in WeatherDisplay:10.37 W/m2 OVC
10:39 -4.3 °F -9.9 °F 1016.1 in South 19.5 mph 19.5 mph 65% 0.0 in WeatherDisplay:10.37 W/m2 OVC
10:44 -4.4 °F -10.0 °F 1016.1 in SSW 22.2 mph 22.2 mph 65% 0.0 in WeatherDisplay:10.37 W/m2 OVC
10:49 -4.4 °F -10.0 °F 1016.1 in SSE 16.7 mph 16.7 mph 65% 0.0 in WeatherDisplay:10.37 W/m2 OVC
10:54 -4.2 °F -9.8 °F 1016.1 in South 11.1 mph 11.1 mph 65% 0.0 in WeatherDisplay:10.37 W/m2 OVC
10:59 -4.1 °F -9.7 °F 1015.8 in SSW 16.3 mph 16.3 mph 65% 0.0 in WeatherDisplay:10.37 W/m2 OVC
11:04 -4.1 °F -9.7 °F 1016.1 in SW 14.8 mph 14.8 mph 65% 0.0 in WeatherDisplay:10.37 W/m2 OVC
11:09 -4.1 °F -9.7 °F 1015.8 in South 14.8 mph 14.8 mph 65% 0.0 in WeatherDisplay:10.37 W/m2 OVC
11:14 -4.0 °F -9.6 °F 1015.5 in SSW 18.5 mph 18.5 mph 65% 0.0 in WeatherDisplay:10.37 W/m2 OVC
11:19 -4.0 °F -9.6 °F 1015.5 in South 12.9 mph 12.9 mph 65% 0.0 in WeatherDisplay:10.37 W/m2 OVC
11:24 -3.8 °F -9.4 °F 1015.8 in South 9.3 mph 9.3 mph 65% 0.0 in WeatherDisplay:10.37 W/m2 OVC
11:29 -3.7 °F -9.7 °F 1015.5 in SSE 22.2 mph 22.2 mph 63% 0.0 in WeatherDisplay:10.37 W/m2 OVC
11:34 -3.8 °F -9.4 °F 1015.1 in ESE 16.7 mph 16.7 mph 65% 0.0 in WeatherDisplay:10.37 W/m2 OVC
11:39 -3.8 °F -9.8 °F 1015.1 in South 18.5 mph 18.5 mph 63% 0.0 in WeatherDisplay:10.37 W/m2 OVC
11:44 -3.7 °F -9.3 °F 1014.8 in SSW 18.5 mph 18.5 mph 65% 0.0 in WeatherDisplay:10.37 W/m2 OVC
11:49 -3.7 °F -9.3 °F 1014.8 in West 11.1 mph 11.9 mph 65% 0.0 in WeatherDisplay:10.37 W/m2 OVC
11:54 -3.3 °F -9.3 °F 1015.1 in SW 16.7 mph 16.7 mph 63% 0.0 in WeatherDisplay:10.37 W/m2 OVC
11:59 -3.4 °F -9.4 °F 1014.8 in SW 19.5 mph 19.5 mph 63% 0.0 in WeatherDisplay:10.37 W/m2 OVC
12:04 -3.5 °F -9.1 °F 1015.1 in SSW 13.0 mph 13.0 mph 65% 0.0 in WeatherDisplay:10.37 W/m2 OVC
12:09 -3.4 °F -9.1 °F 1014.8 in ESE 13.0 mph 13.0 mph 65% 0.0 in WeatherDisplay:10.37 W/m2 OVC
12:14 -3.4 °F -9.1 °F 1014.8 in South 16.7 mph 16.7 mph 65% 0.0 in WeatherDisplay:10.37 W/m2 OVC
12:19 -3.5 °F -9.1 °F 1014.8 in SSE 18.5 mph 18.5 mph 65% 0.0 in WeatherDisplay:10.37 W/m2 OVC
12:24 -3.5 °F -8.9 °F 1014.8 in SW 14.8 mph 14.8 mph 66% 0.0 in WeatherDisplay:10.37 W/m2 OVC
12:29 -3.4 °F -8.8 °F 1014.8 in SW 14.8 mph 14.8 mph 66% 0.0 in WeatherDisplay:10.37 W/m2 OVC
12:34 -3.5 °F -8.2 °F 1014.8 in WSW 14.8 mph 14.8 mph 70% 0.0 in WeatherDisplay:10.37 W/m2 OVC
12:39 -3.8 °F -7.6 °F 1014.8 in ESE 14.8 mph 14.8 mph 75% 0.0 in WeatherDisplay:10.37 W/m2 OVC
12:44 -4.0 °F -6.9 °F 1014.4 in SSW 14.8 mph 14.8 mph 80% 0.0 in WeatherDisplay:10.37 W/m2 OVC
12:49 -4.1 °F -6.9 °F 1014.4 in SW 13.0 mph 13.0 mph 81% 0.0 in WeatherDisplay:10.37 W/m2 -SN
12:55 -4.1 °F -6.6 °F 1014.4 in SW 13.0 mph 13.0 mph 83% 0.0 in WeatherDisplay:10.37 W/m2 -SN
12:59 -4.1 °F -6.2 °F 1014.1 in NW 11.1 mph 11.1 mph 85% 0.0 in WeatherDisplay:10.37 W/m2 -SN
13:04 -4.1 °F -6.2 °F 1014.1 in SW 14.8 mph 14.8 mph 85% 0.0 in WeatherDisplay:10.37 W/m2 -SN
13:09 -4.1 °F -6.1 °F 1014.1 in WSW 11.1 mph 11.1 mph 86% 0.0 in WeatherDisplay:10.37 W/m2 -SN
13:14 -4.2 °F -6.2 °F 1014.1 in SW 13.0 mph 13.0 mph 86% 0.0 in WeatherDisplay:10.37 W/m2 -SN
13:19 -4.2 °F -6.2 °F 1014.1 in SSW 12.9 mph 12.9 mph 86% 0.0 in WeatherDisplay:10.37 W/m2 -SN
13:24 -4.2 °F -6.2 °F 1014.1 in SW 9.3 mph 9.3 mph 86% 0.0 in WeatherDisplay:10.37 W/m2 -SN
13:30 -4.2 °F -6.2 °F 1014.1 in SW 9.7 mph 9.7 mph 86% 0.0 in WeatherDisplay:10.37 W/m2 -SN
13:34 -4.2 °F -6.2 °F 1013.8 in SW 11.1 mph 11.1 mph 86% 0.0 in WeatherDisplay:10.37 W/m2 -SN
13:40 -4.1 °F -5.8 °F 1014.1 in SW 13.0 mph 13.0 mph 88% 0.0 in WeatherDisplay:10.37 W/m2 -SN
13:44 -4.0 °F -6.0 °F 1013.8 in West 14.3 mph 14.3 mph 86% 0.0 in WeatherDisplay:10.37 W/m2 -SN
13:45 -4.0 °F -6.0 °F 1013.8 in SW 14.8 mph 14.8 mph 86% 0.0 in WeatherDisplay:10.37 W/m2 -SN
13:50 -4.0 °F -6.0 °F 1013.8 in SSW 14.3 mph 14.3 mph 86% 0.0 in WeatherDisplay:10.37 W/m2 -SN
13:55 -4.0 °F -6.0 °F 1013.4 in SW 7.9 mph 7.9 mph 86% 0.0 in WeatherDisplay:10.37 W/m2 -SN
14:00 -3.9 °F -5.9 °F 1013.8 in SW 13.0 mph 13.0 mph 86% 0.0 in WeatherDisplay:10.37 W/m2 -SN
14:05 -3.9 °F -5.9 °F 1013.8 in SSW 11.1 mph 11.1 mph 86% 0.0 in WeatherDisplay:10.37 W/m2 -SN
14:10 -3.9 °F -5.9 °F 1013.4 in WSW 9.7 mph 9.7 mph 86% 0.0 in WeatherDisplay:10.37 W/m2 -SN
14:15 -3.9 °F -5.6 °F 1013.8 in SSW 11.1 mph 11.1 mph 88% 0.0 in WeatherDisplay:10.37 W/m2 -SN
14:20 -4.0 °F -5.7 °F 1013.8 in SSW 14.3 mph 14.3 mph 88% 0.0 in WeatherDisplay:10.37 W/m2 -SN
14:25 -4.0 °F -5.7 °F 1013.4 in SSW 9.3 mph 9.3 mph 88% 0.0 in WeatherDisplay:10.37 W/m2 -SN
14:30 -3.9 °F -5.6 °F 1013.4 in SSW 11.1 mph 11.1 mph 88% 0.0 in WeatherDisplay:10.37 W/m2 -SN
14:35 -3.9 °F -5.3 °F 1013.4 in South 13.0 mph 13.0 mph 90% 0.0 in WeatherDisplay:10.37 W/m2 -SN
14:40 -3.8 °F -5.2 °F 1013.4 in SW 7.4 mph 7.4 mph 90% 0.0 in WeatherDisplay:10.37 W/m2 -SN
14:45 -3.8 °F -5.5 °F 1013.4 in WSW 14.8 mph 14.8 mph 88% 0.0 in WeatherDisplay:10.37 W/m2 -SN
14:50 -3.8 °F -5.5 °F 1013.4 in SSW 9.3 mph 9.3 mph 88% 0.0 in WeatherDisplay:10.37 W/m2 -SN
14:55 -3.5 °F -5.2 °F 1013.4 in South 5.6 mph 5.6 mph 88% 0.0 in WeatherDisplay:10.37 W/m2 -SN
15:00 -3.5 °F -5.2 °F 1013.8 in SSW 5.6 mph 5.6 mph 88% 0.0 in WeatherDisplay:10.37 W/m2 -SN
15:05 -3.5 °F -5.2 °F 1013.4 in South 11.1 mph 11.1 mph 88% 0.0 in WeatherDisplay:10.37 W/m2 -SN
15:10 -3.5 °F -5.2 °F 1013.4 in SW 9.3 mph 9.3 mph 88% 0.0 in WeatherDisplay:10.37 W/m2 -SN
15:15 -3.4 °F -5.1 °F 1013.4 in SSW 7.9 mph 7.9 mph 88% 0.0 in WeatherDisplay:10.37 W/m2 -SN
15:21 -3.4 °F -5.1 °F 1013.4 in SSW 9.7 mph 9.7 mph 88% 0.0 in WeatherDisplay:10.37 W/m2 -SN
15:26 -3.3 °F -5.0 °F 1013.8 in West 5.6 mph 5.6 mph 88% 0.0 in WeatherDisplay:10.37 W/m2 -SN
15:31 -3.2 °F -4.9 °F 1013.8 in SSW 6.4 mph 6.4 mph 88% 0.0 in WeatherDisplay:10.37 W/m2 -SN
15:36 -3.2 °F -4.9 °F 1013.8 in South 6.4 mph 6.4 mph 88% 0.0 in WeatherDisplay:10.37 W/m2 -SN
15:41 -3.2 °F -4.9 °F 1013.8 in SSW 13.0 mph 13.0 mph 88% 0.0 in WeatherDisplay:10.37 W/m2 -SN
15:46 -3.2 °F -4.9 °F 1013.8 in SSW 9.7 mph 9.7 mph 88% 0.0 in WeatherDisplay:10.37 W/m2 -SN
15:51 -3.2 °F -4.9 °F 1013.4 in WSW 13.0 mph 13.0 mph 88% 0.0 in WeatherDisplay:10.37 W/m2 -SN
15:56 -3.2 °F -4.9 °F 1013.4 in SW 11.1 mph 11.1 mph 88% 0.0 in WeatherDisplay:10.37 W/m2 -SN
16:01 -3.2 °F -4.9 °F 1013.8 in SW 11.1 mph 11.1 mph 88% 0.0 in WeatherDisplay:10.37 W/m2 -SN
16:06 -2.9 °F -4.3 °F 1013.4 in SSW 6.4 mph 6.4 mph 90% 0.0 in WeatherDisplay:10.37 W/m2 -SN
16:11 -3.2 °F -4.6 °F 1013.4 in SW 11.1 mph 11.1 mph 90% 0.0 in WeatherDisplay:10.37 W/m2 -SN
16:16 -3.0 °F -4.4 °F 1013.4 in SSW 7.4 mph 7.4 mph 90% 0.0 in WeatherDisplay:10.37 W/m2 -SN
16:21 -2.9 °F -4.3 °F 1013.4 in SW 5.6 mph 5.6 mph 90% 0.0 in WeatherDisplay:10.37 W/m2 -SN
16:26 -2.9 °F -4.3 °F 1013.4 in South 9.7 mph 9.7 mph 90% 0.0 in WeatherDisplay:10.37 W/m2 -SN
16:31 -2.9 °F -4.3 °F 1013.4 in SSW 16.7 mph 16.7 mph 90% 0.0 in WeatherDisplay:10.37 W/m2 -SN
16:36 -3.0 °F -4.4 °F 1013.4 in South 14.8 mph 14.8 mph 90% 0.0 in WeatherDisplay:10.37 W/m2 -SN
16:41 -3.2 °F -4.6 °F 1013.4 in SSW 14.8 mph 14.8 mph 90% 0.0 in WeatherDisplay:10.37 W/m2 -SN
16:46 -3.2 °F -4.6 °F 1013.4 in SSW 14.8 mph 14.8 mph 90% 0.0 in WeatherDisplay:10.37 W/m2 -SN
16:51 -3.2 °F -4.6 °F 1013.4 in SSW 9.3 mph 9.3 mph 90% 0.0 in WeatherDisplay:10.37 W/m2 -SN
16:56 -3.2 °F -4.6 °F 1013.8 in South 7.4 mph 7.4 mph 90% 0.0 in WeatherDisplay:10.37 W/m2 -SN
17:01 -3.2 °F -4.6 °F 1013.8 in SSW 7.9 mph 7.9 mph 90% 0.0 in WeatherDisplay:10.37 W/m2 BKN
17:06 -3.2 °F -4.6 °F 1014.1 in SSW 13.0 mph 13.0 mph 90% 0.0 in WeatherDisplay:10.37 W/m2 BKN
17:11 -3.3 °F -4.7 °F 1013.8 in SW 11.1 mph 11.1 mph 90% 0.0 in WeatherDisplay:10.37 W/m2 BKN
17:16 -3.4 °F -4.8 °F 1013.8 in SW 9.7 mph 9.7 mph 90% 0.0 in WeatherDisplay:10.37 W/m2 BKN
17:21 -3.5 °F -4.9 °F 1013.8 in SW 13.0 mph 13.0 mph 90% 0.0 in WeatherDisplay:10.37 W/m2 BKN
17:26 -3.8 °F -5.2 °F 1014.1 in South 7.4 mph 7.4 mph 90% 0.0 in WeatherDisplay:10.37 W/m2 BKN
17:31 -3.8 °F -5.2 °F 1014.1 in SSW 6.4 mph 6.4 mph 90% 0.0 in WeatherDisplay:10.37 W/m2 BKN
17:36 -3.9 °F -5.2 °F 1014.1 in SSW 6.4 mph 6.4 mph 91% 0.0 in WeatherDisplay:10.37 W/m2 BKN
17:41 -4.0 °F -5.3 °F 1014.1 in WSW 9.3 mph 9.3 mph 91% 0.0 in WeatherDisplay:10.37 W/m2 BKN
Juneau County Weather
Compliments of Weather Underground - 3.75 mb